Time;durP1;ratioP1;P1;durP2;ratioP2;P2;SDS_P1;SDS_P2;PMS_P1;PMS_P2;Temp;Humidity;BMP_temperature;BMP_pressure;BME280_temperature;BME280_humidity;BME280_pressure;Samples;Min_cycle;Max_cycle;Signal;HPM_P1;HPM_P2
2021/10/28 00:13:06;;;;;;;3.05;2.75;;;6.20;99.90;;;;;;460630;254;28188;-78
2021/10/28 00:15:05;;;;;;;3.10;2.55;;;6.20;99.90;;;;;;460148;258;27648;-81
2021/10/28 00:17:09;;;;;;;2.92;2.72;;;6.10;99.90;;;;;;460350;257;27588;-80
2021/10/28 00:19:04;;;;;;;2.60;2.45;;;6.10;99.90;;;;;;460171;258;27601;-78
2021/10/28 00:21:05;;;;;;;3.00;2.80;;;6.00;99.90;;;;;;459643;259;27470;-79
2021/10/28 00:23:06;;;;;;;3.40;3.10;;;6.00;99.90;;;;;;459699;256;27593;-79
2021/10/28 00:25:09;;;;;;;2.87;2.67;;;5.90;99.90;;;;;;459810;256;27573;-79
2021/10/28 00:27:09;;;;;;;3.50;3.20;;;5.90;99.90;;;;;;460391;258;27978;-79
2021/10/28 00:29:10;;;;;;;3.47;3.17;;;5.80;99.90;;;;;;460646;254;28223;-80
2021/10/28 00:31:11;;;;;;;3.00;2.80;;;5.70;99.90;;;;;;460678;254;27640;-79
2021/10/28 00:33:13;;;;;;;2.90;2.70;;;5.70;99.90;;;;;;460662;254;27568;-78
2021/10/28 00:35:14;;;;;;;2.85;2.65;;;5.80;99.90;;;;;;460627;258;27652;-78
2021/10/28 00:37:15;;;;;;;2.83;2.62;;;5.80;99.90;;;;;;460588;258;27662;-82
2021/10/28 00:39:16;;;;;;;3.30;2.60;;;5.90;99.90;;;;;;460566;254;27622;-78
2021/10/28 00:41:21;;;;;;;2.37;2.28;;;5.90;99.90;;;;;;460658;258;27560;-80
2021/10/28 00:43:19;;;;;;;2.72;2.55;;;5.90;99.90;;;;;;460341;258;27713;-79
2021/10/28 00:45:20;;;;;;;2.45;2.25;;;5.90;99.90;;;;;;460696;254;28150;-77
2021/10/28 00:47:21;;;;;;;2.40;2.20;;;5.90;99.90;;;;;;460596;258;27616;-82
2021/10/28 00:49:23;;;;;;;2.35;2.25;;;5.80;99.90;;;;;;460646;254;27610;-80
2021/10/28 00:51:24;;;;;;;2.28;2.08;;;5.80;99.90;;;;;;460635;258;27626;-81
2021/10/28 00:53:25;;;;;;;2.42;2.33;;;5.80;99.90;;;;;;460604;258;27659;-82
2021/10/28 00:55:26;;;;;;;2.33;2.22;;;5.80;99.90;;;;;;460719;258;28215;-80
2021/10/28 00:57:28;;;;;;;2.58;2.15;;;5.70;99.90;;;;;;460722;258;28109;-81
2021/10/28 00:59:29;;;;;;;2.55;2.35;;;5.70;99.90;;;;;;460643;258;27640;-78
2021/10/28 01:01:30;;;;;;;2.35;2.25;;;5.70;99.90;;;;;;460613;258;27657;-82
2021/10/28 01:03:33;;;;;;;2.45;2.25;;;5.70;99.90;;;;;;460605;258;27685;-83
2021/10/28 01:05:33;;;;;;;2.25;2.05;;;5.60;99.90;;;;;;460457;258;27633;-80
2021/10/28 01:07:34;;;;;;;2.30;2.20;;;5.50;99.90;;;;;;460547;258;27653;-83
2021/10/28 01:09:35;;;;;;;2.58;2.37;;;5.50;99.90;;;;;;460532;254;27596;-82
2021/10/28 01:11:38;;;;;;;2.33;2.20;;;5.50;99.90;;;;;;460574;258;27649;-79
2021/10/28 01:13:38;;;;;;;2.20;2.10;;;5.40;99.90;;;;;;460507;254;28044;-81
2021/10/28 01:15:39;;;;;;;2.30;2.20;;;5.50;99.90;;;;;;460524;258;28211;-81
2021/10/28 01:17:40;;;;;;;2.80;2.50;;;5.50;99.90;;;;;;460538;258;27655;-82
2021/10/28 01:19:43;;;;;;;2.10;2.00;;;5.40;99.90;;;;;;460481;258;27613;-82
2021/10/28 01:21:43;;;;;;;2.33;2.17;;;5.40;99.90;;;;;;460527;258;27589;-76
2021/10/28 01:23:46;;;;;;;2.17;2.05;;;5.50;99.90;;;;;;460566;258;27630;-82
2021/10/28 01:25:45;;;;;;;2.20;2.10;;;5.50;99.90;;;;;;460487;258;27597;-81
2021/10/28 01:27:47;;;;;;;2.47;2.37;;;5.50;99.90;;;;;;460563;258;27566;-82
2021/10/28 01:29:48;;;;;;;2.90;2.70;;;5.50;99.90;;;;;;460561;258;27613;-79
2021/10/28 01:31:49;;;;;;;2.20;2.10;;;5.40;99.90;;;;;;460487;258;28089;-80
2021/10/28 01:33:50;;;;;;;2.20;2.10;;;5.50;99.90;;;;;;460490;258;28047;-82
2021/10/28 01:35:53;;;;;;;2.95;2.75;;;5.50;99.90;;;;;;460513;258;27645;-80
2021/10/28 01:37:53;;;;;;;2.50;2.30;;;5.50;99.90;;;;;;460493;258;28752;-81
2021/10/28 01:39:54;;;;;;;2.80;2.60;;;5.40;99.90;;;;;;460529;258;27666;-80
2021/10/28 01:41:55;;;;;;;2.60;2.40;;;5.40;99.90;;;;;;460499;258;27687;-81
2021/10/28 01:43:57;;;;;;;2.67;2.47;;;5.40;99.90;;;;;;460643;258;27697;-83
2021/10/28 01:45:58;;;;;;;2.20;2.10;;;5.50;99.90;;;;;;460749;258;27722;-81
2021/10/28 01:47:59;;;;;;;2.85;2.62;;;5.50;99.90;;;;;;460708;258;27613;-76
2021/10/28 01:50:00;;;;;;;2.47;2.37;;;5.40;99.90;;;;;;460711;254;27993;-75
2021/10/28 01:52:02;;;;;;;5.82;2.55;;;5.40;99.90;;;;;;460713;258;28201;-78
2021/10/28 01:54:03;;;;;;;2.30;2.20;;;5.40;99.90;;;;;;460755;258;27564;-79
2021/10/28 01:56:04;;;;;;;2.50;2.40;;;5.40;99.90;;;;;;460710;258;27593;-78
2021/10/28 01:58:06;;;;;;;2.33;2.15;;;5.40;99.90;;;;;;460731;253;27568;-77
2021/10/28 02:00:07;;;;;;;2.10;2.00;;;5.30;99.90;;;;;;460710;258;27641;-79
2021/10/28 02:02:08;;;;;;;2.67;2.47;;;5.30;99.90;;;;;;460749;258;27616;-78
2021/10/28 02:04:10;;;;;;;2.28;2.08;;;5.30;99.90;;;;;;460581;258;27562;-82
2021/10/28 02:06:10;;;;;;;2.35;2.25;;;5.30;99.90;;;;;;460706;258;27596;-80
2021/10/28 02:08:12;;;;;;;2.60;2.40;;;5.30;99.90;;;;;;460716;258;27718;-79
2021/10/28 02:10:13;;;;;;;2.40;2.20;;;5.30;99.90;;;;;;460729;258;28042;-81
2021/10/28 02:12:14;;;;;;;2.08;1.98;;;5.30;99.90;;;;;;460751;258;28098;-79
2021/10/28 02:14:15;;;;;;;2.33;2.22;;;5.30;99.90;;;;;;460706;258;28032;-79
2021/10/28 02:16:17;;;;;;;2.65;2.45;;;5.30;99.90;;;;;;460737;258;27649;-79
2021/10/28 02:18:18;;;;;;;2.10;2.00;;;5.30;99.90;;;;;;460725;258;27613;-77
2021/10/28 02:20:19;;;;;;;2.65;2.45;;;5.30;99.90;;;;;;460731;258;27561;-79
2021/10/28 02:22:20;;;;;;;2.55;2.35;;;5.30;99.90;;;;;;460639;258;27617;-83
2021/10/28 02:24:22;;;;;;;2.65;2.45;;;5.30;99.90;;;;;;460648;258;27732;-80
2021/10/28 02:26:24;;;;;;;2.42;2.33;;;5.30;99.90;;;;;;460597;254;27604;-82
2021/10/28 02:28:24;;;;;;;2.20;2.10;;;5.20;99.90;;;;;;460648;258;27636;-80
2021/10/28 02:30:26;;;;;;;2.60;2.40;;;5.20;99.90;;;;;;460636;258;28076;-82
2021/10/28 02:32:27;;;;;;;2.45;2.10;;;5.20;99.90;;;;;;460523;254;28226;-77
2021/10/28 02:34:28;;;;;;;4.32;2.22;;;5.20;99.90;;;;;;460683;258;28291;-80
2021/10/28 02:36:29;;;;;;;2.60;2.50;;;5.20;99.90;;;;;;460690;258;27575;-78
2021/10/28 02:38:31;;;;;;;2.05;1.95;;;5.20;99.90;;;;;;460704;258;27639;-76
2021/10/28 02:40:32;;;;;;;2.25;2.15;;;5.20;99.90;;;;;;460598;258;27617;-83
2021/10/28 02:42:33;;;;;;;4.43;2.25;;;5.10;99.90;;;;;;460579;257;27652;-81
2021/10/28 02:44:34;;;;;;;2.42;2.33;;;5.10;99.90;;;;;;460621;258;27670;-78
2021/10/28 02:46:35;;;;;;;2.20;2.10;;;5.10;99.90;;;;;;460692;258;27590;-82
2021/10/28 02:48:37;;;;;;;2.53;2.33;;;5.10;99.90;;;;;;460700;258;27624;-80
2021/10/28 02:50:38;;;;;;;2.50;2.30;;;5.10;99.90;;;;;;460647;258;28034;-81
2021/10/28 02:52:40;;;;;;;2.47;2.30;;;5.10;99.90;;;;;;460674;258;28179;-80
2021/10/28 02:54:40;;;;;;;2.33;2.22;;;5.10;99.90;;;;;;460685;258;28201;-77
2021/10/28 02:56:42;;;;;;;2.33;2.20;;;5.10;99.90;;;;;;460728;258;27711;-81
2021/10/28 02:58:43;;;;;;;2.45;2.28;;;5.10;99.90;;;;;;460641;258;27645;-79
2021/10/28 03:00:44;;;;;;;1.92;1.83;;;5.10;99.90;;;;;;460657;258;27571;-81
2021/10/28 03:02:45;;;;;;;2.67;2.47;;;5.00;99.90;;;;;;460681;258;27701;-80
2021/10/28 03:04:47;;;;;;;1.90;1.80;;;5.00;99.90;;;;;;460689;258;27611;-80
2021/10/28 03:06:48;;;;;;;2.60;2.40;;;5.00;99.90;;;;;;460659;258;27570;-81
2021/10/28 03:08:50;;;;;;;2.30;2.20;;;5.00;99.90;;;;;;460619;258;27724;-80
2021/10/28 03:10:51;;;;;;;2.50;2.30;;;4.90;99.90;;;;;;460639;254;27579;-79
2021/10/28 03:12:53;;;;;;;2.40;2.20;;;4.90;99.90;;;;;;460660;258;28062;-81
2021/10/28 03:14:58;;;;;;;2.35;2.22;;;4.90;99.90;;;;;;460564;258;28152;-80
2021/10/28 03:17:07;;;;;;;2.58;2.37;;;4.90;99.90;;;;;;460365;258;28070;-80
2021/10/28 03:26:00;;;;;;;2.00;1.90;;;4.90;99.90;;;;;;460569;254;28097;-81
2021/10/28 03:28:02;;;;;;;2.30;2.20;;;4.90;99.90;;;;;;460597;258;29990;-81
2021/10/28 03:30:02;;;;;;;2.37;2.20;;;4.80;99.90;;;;;;460603;258;28077;-80
2021/10/28 03:32:03;;;;;;;3.67;2.50;;;4.90;99.90;;;;;;460607;258;27719;-78
2021/10/28 03:34:04;;;;;;;2.78;2.58;;;4.90;99.90;;;;;;460657;258;27613;-81
2021/10/28 03:36:12;;;;;;;3.10;2.50;;;4.90;99.90;;;;;;460639;254;27621;-80
2021/10/28 03:38:40;;;;;;;2.33;2.12;;;4.90;99.90;;;;;;460288;258;27623;-82
2021/10/28 03:52:35;;;;;;;2.75;2.55;;;4.70;99.90;;;;;;460615;258;28134;-80
2021/10/28 04:07:47;;;;;;;2.70;2.50;;;4.60;99.90;;;;;;460623;258;27652;-80
2021/10/28 04:21:02;;;;;;;3.22;3.03;;;4.50;99.90;;;;;;451199;255;27557;-82
2021/10/28 04:29:51;;;;;;;3.28;3.08;;;4.40;99.90;;;;;;460640;258;27563;-80
2021/10/28 04:31:52;;;;;;;3.20;3.00;;;4.40;99.90;;;;;;460658;258;27623;-80
2021/10/28 04:33:53;;;;;;;3.70;3.25;;;4.40;99.90;;;;;;460674;258;28150;-81
2021/10/28 04:35:55;;;;;;;3.03;2.83;;;4.40;99.90;;;;;;460699;258;28069;-80
2021/10/28 04:37:56;;;;;;;3.03;2.83;;;4.40;99.90;;;;;;460690;258;29107;-81
2021/10/28 04:39:57;;;;;;;3.60;3.30;;;4.30;99.90;;;;;;460722;258;27673;-79
2021/10/28 04:41:58;;;;;;;2.60;2.40;;;4.20;99.90;;;;;;460744;258;27564;-79
2021/10/28 04:44:00;;;;;;;3.35;3.08;;;4.20;99.90;;;;;;460704;258;27567;-80
2021/10/28 04:46:02;;;;;;;3.40;3.20;;;4.20;99.90;;;;;;460646;254;27644;-79
2021/10/28 04:48:02;;;;;;;3.05;2.85;;;4.20;99.90;;;;;;460674;253;27648;-80
2021/10/28 04:50:03;;;;;;;3.10;2.90;;;4.20;99.90;;;;;;460696;254;27575;-79
2021/10/28 04:52:05;;;;;;;3.67;3.47;;;4.20;99.90;;;;;;460681;258;27696;-79
2021/10/28 04:54:06;;;;;;;4.28;3.95;;;4.20;99.90;;;;;;460668;253;27555;-82
2021/10/28 04:56:07;;;;;;;3.40;3.10;;;4.20;99.90;;;;;;460689;254;27627;-81
2021/10/28 04:58:08;;;;;;;4.53;4.22;;;4.20;99.90;;;;;;460683;254;27609;-78
2021/10/28 05:00:10;;;;;;;3.47;3.28;;;4.20;99.90;;;;;;460694;253;27604;-80
2021/10/28 05:02:11;;;;;;;4.15;3.60;;;4.10;99.90;;;;;;460702;258;28093;-78
2021/10/28 05:04:12;;;;;;;4.07;3.45;;;4.10;99.90;;;;;;460661;258;29341;-80
2021/10/28 05:06:13;;;;;;;3.67;3.37;;;4.00;99.90;;;;;;460678;254;28114;-81
2021/10/28 05:08:15;;;;;;;3.67;3.37;;;4.10;99.90;;;;;;460718;258;27621;-79
2021/10/28 05:10:16;;;;;;;3.95;3.55;;;4.10;99.90;;;;;;460661;254;27672;-81
2021/10/28 05:12:17;;;;;;;3.53;3.22;;;4.10;99.90;;;;;;461109;258;27691;-81
2021/10/28 05:14:18;;;;;;;3.22;3.03;;;4.10;99.90;;;;;;461126;258;27586;-81
2021/10/28 05:16:20;;;;;;;3.62;3.33;;;4.10;99.90;;;;;;461078;254;27591;-80
2021/10/28 05:18:24;;;;;;;4.00;3.45;;;4.10;99.90;;;;;;461080;254;27723;-80
2021/10/28 05:20:22;;;;;;;2.92;2.72;;;4.10;99.90;;;;;;460900;255;27633;-82
2021/10/28 05:22:23;;;;;;;3.08;2.87;;;4.10;99.90;;;;;;461142;254;27612;-79
2021/10/28 05:24:25;;;;;;;3.80;3.50;;;4.00;99.90;;;;;;460645;254;27705;-80
2021/10/28 05:26:26;;;;;;;3.47;2.92;;;3.90;99.90;;;;;;460652;258;27601;-80
2021/10/28 05:28:27;;;;;;;3.60;3.30;;;3.80;99.90;;;;;;460729;258;28132;-79
2021/10/28 05:30:31;;;;;;;3.20;3.00;;;3.90;99.90;;;;;;460683;258;28010;-81
2021/10/28 05:32:33;;;;;;;3.62;3.37;;;3.90;99.90;;;;;;460747;258;27620;-80
2021/10/28 05:34:36;;;;;;;4.00;3.70;;;3.90;99.90;;;;;;460768;258;27562;-79
2021/10/28 05:36:36;;;;;;;3.95;3.65;;;3.90;99.90;;;;;;460580;258;27594;-80
2021/10/28 05:38:37;;;;;;;3.53;3.22;;;3.80;99.90;;;;;;460643;258;27569;-77
2021/10/28 05:40:38;;;;;;;4.20;3.90;;;3.80;99.90;;;;;;460685;258;27689;-78
2021/10/28 05:42:43;;;;;;;3.50;3.30;;;3.80;99.90;;;;;;460719;258;27581;-77
2021/10/28 05:44:41;;;;;;;3.40;3.15;;;3.80;99.90;;;;;;460487;258;27564;-78
2021/10/28 05:46:42;;;;;;;4.55;4.20;;;3.90;99.90;;;;;;460729;258;27582;-79
2021/10/28 05:48:43;;;;;;;5.05;3.47;;;3.80;99.90;;;;;;460685;258;27698;-80
2021/10/28 05:50:46;;;;;;;4.10;3.78;;;3.80;99.90;;;;;;460675;258;27681;-79
2021/10/28 05:52:47;;;;;;;4.00;3.70;;;3.90;99.90;;;;;;460560;254;27624;-80
2021/10/28 05:54:47;;;;;;;4.00;3.70;;;3.90;99.90;;;;;;460664;254;28093;-80
2021/10/28 05:56:48;;;;;;;4.05;3.75;;;3.90;99.90;;;;;;460684;258;28064;-79
2021/10/28 05:58:49;;;;;;;4.10;3.80;;;3.90;99.90;;;;;;460673;258;28029;-81
2021/10/28 06:00:51;;;;;;;3.97;3.60;;;3.90;99.90;;;;;;460658;258;27568;-79
2021/10/28 06:02:52;;;;;;;4.10;3.80;;;3.90;99.90;;;;;;460703;258;27567;-79
2021/10/28 06:04:53;;;;;;;3.22;3.00;;;3.90;99.90;;;;;;460744;254;27620;-80
2021/10/28 06:06:54;;;;;;;3.87;3.53;;;3.90;99.90;;;;;;460705;258;27607;-78
2021/10/28 06:08:56;;;;;;;3.47;3.20;;;3.90;99.90;;;;;;460677;258;27662;-80
2021/10/28 06:10:57;;;;;;;3.28;3.08;;;4.00;99.90;;;;;;460694;258;27601;-79
2021/10/28 06:13:01;;;;;;;3.55;3.25;;;4.00;99.90;;;;;;460733;254;27651;-79
2021/10/28 06:15:00;;;;;;;3.25;2.95;;;3.90;99.90;;;;;;460433;258;27644;-81
2021/10/28 06:17:08;;;;;;;3.10;2.90;;;3.90;99.90;;;;;;460655;254;27624;-80
2021/10/28 06:19:05;;;;;;;3.80;3.40;;;3.90;99.90;;;;;;460351;258;27701;-80
2021/10/28 06:21:06;;;;;;;3.47;2.90;;;3.90;99.90;;;;;;460629;258;27645;-79
2021/10/28 06:23:07;;;;;;;3.60;3.30;;;3.80;99.90;;;;;;460656;258;27651;-80
2021/10/28 06:25:09;;;;;;;3.62;3.35;;;3.80;99.90;;;;;;460621;258;27597;-80
2021/10/28 06:27:10;;;;;;;4.00;3.70;;;3.70;99.90;;;;;;460614;258;27556;-80
2021/10/28 06:29:11;;;;;;;4.30;3.83;;;3.70;99.90;;;;;;460575;258;27617;-81
2021/10/28 06:31:16;;;;;;;3.95;3.65;;;3.50;99.90;;;;;;460643;258;27610;-79
2021/10/28 06:33:18;;;;;;;4.20;3.80;;;3.40;99.90;;;;;;460375;258;28016;-80
2021/10/28 06:35:15;;;;;;;4.70;4.30;;;3.30;99.90;;;;;;460364;258;28259;-79
2021/10/28 06:37:17;;;;;;;4.40;4.00;;;3.30;99.90;;;;;;460627;254;29223;-80
2021/10/28 06:39:17;;;;;;;5.10;4.60;;;3.40;99.90;;;;;;460658;258;28952;-81
2021/10/28 06:41:19;;;;;;;3.65;3.40;;;3.40;99.90;;;;;;460704;254;27705;-79
2021/10/28 06:43:20;;;;;;;4.22;3.83;;;3.50;99.90;;;;;;460674;258;27586;-82
2021/10/28 06:45:21;;;;;;;3.87;3.47;;;3.50;99.90;;;;;;460687;258;27703;-80
2021/10/28 06:47:22;;;;;;;4.10;3.70;;;3.60;99.90;;;;;;460654;258;27609;-81
2021/10/28 06:49:24;;;;;;;3.78;3.47;;;3.60;99.90;;;;;;460665;258;27717;-81
2021/10/28 06:51:25;;;;;;;4.15;3.75;;;3.70;99.90;;;;;;460699;258;27668;-79
2021/10/28 06:53:31;;;;;;;3.62;3.33;;;3.70;99.90;;;;;;460660;258;27589;-81
2021/10/28 07:02:11;;;;;;;4.00;3.60;;;3.80;99.90;;;;;;453805;258;27592;-79
2021/10/28 07:04:30;;;;;;;3.10;2.90;;;3.70;99.90;;;;;;460623;258;27630;-81
2021/10/28 07:06:36;;;;;;;3.70;3.40;;;3.70;99.90;;;;;;460646;258;27706;-78
2021/10/28 07:08:36;;;;;;;4.03;3.72;;;3.80;99.90;;;;;;460374;258;28153;-82
2021/10/28 07:10:35;;;;;;;3.50;3.20;;;3.70;99.90;;;;;;460427;258;28104;-81
2021/10/28 07:14:37;;;;;;;4.20;3.80;;;3.80;99.90;;;;;;460685;258;28021;-80
2021/10/28 07:16:42;;;;;;;4.18;3.87;;;3.80;99.90;;;;;;460649;258;27607;-79
2021/10/28 07:23:15;;;;;;;4.90;4.50;;;3.90;99.90;;;;;;460707;258;27565;-81
2021/10/28 07:30:06;;;;;;;5.35;4.95;;;4.10;99.90;;;;;;460678;258;27614;-79
2021/10/28 07:59:06;;;;;;;6.20;5.70;;;4.70;99.90;;;;;;460691;258;27631;-80
2021/10/28 08:15:06;;;;;;;4.82;4.43;;;5.30;99.90;;;;;;460629;254;27575;-80
2021/10/28 08:17:12;;;;;;;4.30;4.00;;;5.50;99.90;;;;;;460092;258;27653;-80
2021/10/28 08:19:19;;;;;;;4.65;4.25;;;5.80;99.90;;;;;;460188;258;27610;-80
2021/10/28 08:21:16;;;;;;;4.80;4.40;;;6.00;99.90;;;;;;459881;258;28094;-78
2021/10/28 08:29:57;;;;;;;6.60;6.00;;;6.90;99.90;;;;;;460718;258;27590;-79
2021/10/28 08:31:57;;;;;;;7.60;5.87;;;7.00;99.90;;;;;;460730;258;28100;-79
2021/10/28 08:33:58;;;;;;;10.32;7.10;;;7.20;99.90;;;;;;460794;258;27694;-81
2021/10/28 08:36:10;;;;;;;8.50;6.37;;;7.40;99.90;;;;;;460829;254;27585;-79
2021/10/28 08:38:01;;;;;;;10.50;6.80;;;7.50;99.90;;;;;;459887;258;27644;-79
2021/10/28 08:40:02;;;;;;;12.73;8.30;;;7.60;99.90;;;;;;460969;258;27570;-81
2021/10/28 08:42:03;;;;;;;13.90;7.53;;;7.80;99.90;;;;;;461039;258;28869;-81
2021/10/28 08:44:05;;;;;;;13.60;7.90;;;7.90;99.90;;;;;;461030;258;28291;-83
2021/10/28 08:46:07;;;;;;;13.70;8.33;;;8.00;99.90;;;;;;460838;258;28508;-81
2021/10/28 08:48:08;;;;;;;17.10;10.10;;;8.00;99.90;;;;;;460760;258;28402;-80
2021/10/28 08:50:11;;;;;;;16.07;9.53;;;8.10;99.90;;;;;;460747;258;28589;-82
2021/10/28 09:24:04;;;;;;;10.93;6.80;;;8.30;99.90;;;;;;450143;263;29024;-84
2021/10/28 09:26:04;;;;;;;10.00;6.70;;;8.40;99.90;;;;;;455506;254;27841;-78
2021/10/28 09:28:07;;;;;;;9.30;5.80;;;8.40;99.90;;;;;;460413;258;28135;-82
2021/10/28 09:34:22;;;;;;;9.50;5.80;;;8.40;99.90;;;;;;460906;258;28133;-79
2021/10/28 09:43:32;;;;;;;8.00;5.67;;;8.40;99.90;;;;;;460168;258;27908;-83
2021/10/28 09:45:21;;;;;;;8.20;5.60;;;8.60;99.90;;;;;;460927;258;28023;-81
2021/10/28 09:47:30;;;;;;;8.03;5.93;;;8.60;99.90;;;;;;460519;258;28123;-81
2021/10/28 09:51:19;;;;;;;7.63;5.80;;;8.80;99.90;;;;;;459969;259;28371;-82
2021/10/28 09:59:48;;;;;;;8.30;5.77;;;9.00;99.90;;;;;;461550;253;28180;-82
2021/10/28 10:01:50;;;;;;;7.60;5.50;;;9.10;99.90;;;;;;460956;258;28063;-83
2021/10/28 10:03:57;;;;;;;7.57;5.83;;;9.10;99.90;;;;;;460909;254;27697;-81
2021/10/28 10:05:58;;;;;;;9.00;6.43;;;9.30;99.90;;;;;;460593;258;28062;-83
2021/10/28 10:07:56;;;;;;;9.13;6.30;;;9.40;99.90;;;;;;460827;258;27710;-80
2021/10/28 10:09:57;;;;;;;9.20;6.03;;;9.30;99.90;;;;;;461024;258;28193;-82
2021/10/28 10:11:59;;;;;;;7.23;4.97;;;9.30;99.90;;;;;;460979;258;28077;-82
2021/10/28 10:14:00;;;;;;;6.83;4.93;;;9.30;99.90;;;;;;460957;258;28063;-83
2021/10/28 10:16:02;;;;;;;7.17;5.23;;;9.40;99.90;;;;;;460969;253;27662;-82
2021/10/28 10:18:05;;;;;;;6.23;4.90;;;9.40;99.90;;;;;;460818;258;28095;-80
2021/10/28 10:20:04;;;;;;;7.23;5.17;;;9.40;99.90;;;;;;460660;258;27689;-83
2021/10/28 10:22:22;;;;;;;6.37;4.50;;;9.60;99.90;;;;;;460893;258;27993;-83
2021/10/28 10:24:23;;;;;;;5.03;4.20;;;9.60;99.90;;;;;;460464;258;27919;-81
2021/10/28 10:26:48;;;;;;;7.27;4.53;;;9.60;99.90;;;;;;460519;258;28068;-82
2021/10/28 11:03:01;;;;;;;5.83;4.00;;;9.80;99.90;;;;;;461039;254;29466;-83
2021/10/28 11:23:19;;;;;;;6.27;4.90;;;10.90;99.90;;;;;;458439;256;27684;-82
2021/10/28 11:27:50;;;;;;;4.70;4.13;;;11.00;99.90;;;;;;458365;255;28152;-82
2021/10/28 12:20:25;;;;;;;10.03;4.00;;;11.70;99.90;;;;;;462534;257;28081;-80
2021/10/28 12:25:07;;;;;;;4.77;3.90;;;11.80;99.90;;;;;;462489;257;27908;-82
2021/10/28 12:43:29;;;;;;;4.10;3.80;;;11.80;99.90;;;;;;462541;253;27864;-82
2021/10/28 12:45:19;;;;;;;5.20;4.70;;;11.90;99.90;;;;;;462409;257;28094;-82
2021/10/28 12:47:21;;;;;;;5.60;5.00;;;12.00;99.90;;;;;;461769;257;27836;-83
2021/10/28 12:53:39;;;;;;;5.73;4.63;;;11.90;99.90;;;;;;462411;253;28090;-82
2021/10/28 13:02:37;;;;;;;5.13;4.60;;;11.90;99.90;;;;;;452898;257;27947;-82
2021/10/28 13:04:49;;;;;;;5.53;4.50;;;12.00;99.90;;;;;;460935;257;27972;-81
2021/10/28 13:06:50;;;;;;;5.57;4.50;;;12.10;99.90;;;;;;461364;257;28491;-78
2021/10/28 13:50:08;;;;;;;4.63;4.10;;;12.70;99.90;;;;;;463098;257;28337;-83
2021/10/28 14:23:58;;;;;;;3.73;3.43;;;12.50;99.90;;;;;;462842;257;28892;-80
2021/10/28 14:28:28;;;;;;;3.27;2.97;;;12.50;99.90;;;;;;462901;257;28928;-80
2021/10/28 14:30:52;;;;;;;3.70;3.40;;;12.40;99.90;;;;;;460839;257;28259;-82
2021/10/28 14:34:57;;;;;;;3.70;3.40;;;12.40;99.90;;;;;;462908;253;28227;-81
2021/10/28 15:02:26;;;;;;;3.33;3.03;;;12.50;99.90;;;;;;462367;257;28681;-81
2021/10/28 15:29:54;;;;;;;5.03;3.40;;;12.10;99.90;;;;;;462440;257;28083;-81
2021/10/28 15:32:18;;;;;;;3.97;3.30;;;12.10;99.90;;;;;;461907;257;28018;-79
2021/10/28 15:38:37;;;;;;;3.63;3.30;;;12.00;99.90;;;;;;462423;257;28527;-80
2021/10/28 15:40:47;;;;;;;3.93;3.60;;;11.90;99.90;;;;;;460799;257;27956;-81
2021/10/28 16:01:05;;;;;;;5.30;4.37;;;11.20;99.90;;;;;;462306;257;28105;-79
2021/10/28 16:22:02;;;;;;;4.40;3.93;;;10.20;99.90;;;;;;462409;253;28007;-82
2021/10/28 16:23:33;;;;;;;4.30;3.90;;;10.20;99.90;;;;;;459578;257;28083;-80
2021/10/28 16:25:34;;;;;;;4.13;3.50;;;10.10;99.90;;;;;;462344;257;27976;-81
2021/10/28 16:27:36;;;;;;;3.67;3.37;;;10.00;99.90;;;;;;462313;254;28026;-82
2021/10/28 16:29:37;;;;;;;3.57;3.27;;;9.90;99.90;;;;;;462333;257;28359;-79
2021/10/28 16:31:38;;;;;;;4.00;3.50;;;9.80;99.90;;;;;;462337;252;28168;-81
2021/10/28 16:33:39;;;;;;;4.17;3.77;;;9.80;99.90;;;;;;462251;257;28041;-80
2021/10/28 16:35:40;;;;;;;4.07;3.67;;;9.70;99.90;;;;;;462245;257;28191;-80
2021/10/28 16:37:42;;;;;;;3.50;3.20;;;9.60;99.90;;;;;;462207;253;28633;-81
2021/10/28 16:39:43;;;;;;;3.77;3.47;;;9.60;99.90;;;;;;462317;257;28259;-79
2021/10/28 16:41:44;;;;;;;5.27;3.57;;;9.50;99.90;;;;;;462348;257;28158;-82
2021/10/28 16:43:45;;;;;;;3.60;3.30;;;9.40;99.90;;;;;;462350;257;28047;-80
2021/10/28 16:45:47;;;;;;;3.53;3.20;;;9.40;99.90;;;;;;462405;257;28003;-82
2021/10/28 16:47:48;;;;;;;3.50;3.20;;;9.40;99.90;;;;;;462572;257;27999;-81
2021/10/28 16:49:49;;;;;;;3.77;3.47;;;9.40;99.90;;;;;;462538;257;27981;-79
2021/10/28 16:51:50;;;;;;;3.60;3.30;;;9.30;99.90;;;;;;462535;257;28049;-80
2021/10/28 16:53:52;;;;;;;3.30;3.00;;;9.20;99.90;;;;;;459744;258;27990;-80
2021/10/28 16:55:53;;;;;;;4.20;2.97;;;9.10;99.90;;;;;;462303;253;28238;-81
2021/10/28 16:57:54;;;;;;;3.47;3.17;;;9.10;99.90;;;;;;462273;257;28064;-80
2021/10/28 16:59:55;;;;;;;3.43;3.13;;;9.10;99.90;;;;;;462263;257;28069;-80
2021/10/28 17:01:57;;;;;;;3.67;3.37;;;9.00;99.90;;;;;;462247;257;27836;-81
2021/10/28 17:03:59;;;;;;;3.23;3.03;;;;;;;;;;462242;257;28003;-81
2021/10/28 17:06:00;;;;;;;4.03;3.53;;;8.90;99.90;;;;;;462221;257;26882;-81
2021/10/28 17:08:01;;;;;;;3.40;3.10;;;8.80;99.90;;;;;;462248;257;28402;-81
2021/10/28 17:10:04;;;;;;;4.10;3.70;;;8.80;99.90;;;;;;462259;257;29097;-81
2021/10/28 17:12:04;;;;;;;3.37;3.17;;;8.70;99.90;;;;;;462184;257;28577;-79
2021/10/28 17:14:05;;;;;;;3.13;2.93;;;8.60;99.90;;;;;;462210;257;28409;-81
2021/10/28 17:16:06;;;;;;;3.90;3.60;;;8.60;99.90;;;;;;462205;257;28583;-80
2021/10/28 17:18:07;;;;;;;4.07;3.67;;;8.60;99.90;;;;;;462238;253;28160;-78
2021/10/28 17:20:09;;;;;;;4.30;3.90;;;8.60;99.90;;;;;;462255;257;27713;-80
2021/10/28 17:22:10;;;;;;;4.10;3.77;;;8.60;99.90;;;;;;462242;257;28074;-79
2021/10/28 17:24:24;;;;;;;3.70;3.40;;;8.60;99.90;;;;;;462221;257;27973;-81
2021/10/28 17:26:14;;;;;;;4.37;3.97;;;8.60;99.90;;;;;;461046;257;27671;-81
2021/10/28 17:28:14;;;;;;;4.63;4.10;;;8.60;99.90;;;;;;462125;257;28201;-78
2021/10/28 17:30:15;;;;;;;3.90;3.43;;;8.60;99.90;;;;;;462253;257;27944;-82
2021/10/28 17:32:16;;;;;;;4.40;4.00;;;8.50;99.90;;;;;;462225;257;28358;-80
2021/10/28 17:34:17;;;;;;;4.20;3.90;;;8.50;99.90;;;;;;462239;257;27972;-81
2021/10/28 17:36:19;;;;;;;5.90;4.00;;;8.50;99.90;;;;;;462231;257;27610;-80
2021/10/28 17:38:20;;;;;;;4.20;3.77;;;8.50;99.90;;;;;;462244;257;27795;-81
2021/10/28 17:40:25;;;;;;;8.50;3.40;;;8.40;99.90;;;;;;462238;257;28070;-80
2021/10/28 17:42:30;;;;;;;4.97;4.20;;;;;;;;;;462220;257;26914;-79
2021/10/28 17:44:51;;;;;;;4.57;4.17;;;;;;;;;;462231;257;26782;-80
2021/10/28 17:46:45;;;;;;;5.83;4.27;;;;;;;;;;461661;257;26818;-80
2021/10/28 17:48:48;;;;;;;4.10;3.80;;;;;;;;;;462255;253;26445;-81
2021/10/28 17:51:08;;;;;;;4.20;3.80;;;;;;;;;;462153;257;27905;-80
2021/10/28 17:53:09;;;;;;;4.40;4.00;;;8.20;99.90;;;;;;462277;257;26834;-81
2021/10/28 17:55:10;;;;;;;5.60;4.60;;;8.10;99.90;;;;;;462270;257;28989;-79
2021/10/28 17:57:12;;;;;;;4.30;3.90;;;8.20;99.90;;;;;;462258;257;27721;-81
2021/10/28 17:59:18;;;;;;;5.80;5.03;;;;;;;;;;462239;253;27509;-81
2021/10/28 18:01:20;;;;;;;5.13;4.30;;;8.00;99.90;;;;;;462190;257;26303;-81
2021/10/28 18:03:20;;;;;;;4.40;4.00;;;8.10;99.90;;;;;;462131;257;28009;-81
2021/10/28 18:05:20;;;;;;;4.53;4.13;;;8.00;99.90;;;;;;462143;257;28049;-80
2021/10/28 18:07:21;;;;;;;6.00;5.30;;;8.00;99.90;;;;;;462260;253;28466;-80
2021/10/28 18:09:23;;;;;;;5.77;5.10;;;8.00;99.90;;;;;;462266;253;28091;-78
2021/10/28 18:11:24;;;;;;;5.70;5.10;;;7.90;99.90;;;;;;462237;257;28024;-81
2021/10/28 18:13:25;;;;;;;7.70;6.43;;;7.80;99.90;;;;;;462229;257;28015;-80
2021/10/28 18:15:27;;;;;;;7.63;6.47;;;7.80;99.90;;;;;;462231;257;28035;-82
2021/10/28 18:17:28;;;;;;;9.20;6.60;;;7.80;99.90;;;;;;462292;257;27778;-80
2021/10/28 18:19:29;;;;;;;9.80;6.50;;;7.80;99.90;;;;;;462039;253;27909;-79
2021/10/28 18:21:30;;;;;;;7.90;6.60;;;7.80;99.90;;;;;;460542;258;28082;-80
2021/10/28 18:23:31;;;;;;;7.37;6.13;;;7.80;99.90;;;;;;460522;254;28581;-81
2021/10/28 18:25:32;;;;;;;8.93;6.07;;;7.80;99.90;;;;;;460539;254;29245;-79
2021/10/28 18:27:34;;;;;;;6.70;5.73;;;7.80;99.90;;;;;;460550;258;28585;-80
2021/10/28 18:29:35;;;;;;;6.30;5.07;;;7.80;99.90;;;;;;460537;258;28639;-79
2021/10/28 18:31:36;;;;;;;5.70;4.90;;;7.80;99.90;;;;;;460553;258;28049;-82
2021/10/28 18:33:37;;;;;;;5.67;5.07;;;7.80;99.90;;;;;;460492;258;28107;-80
2021/10/28 18:35:39;;;;;;;7.53;5.27;;;7.70;99.90;;;;;;460565;254;29014;-80
2021/10/28 18:37:40;;;;;;;6.67;4.67;;;7.60;99.90;;;;;;460593;258;27922;-82
2021/10/28 18:39:41;;;;;;;5.93;4.80;;;7.60;99.90;;;;;;460553;258;28146;-79
2021/10/28 18:41:43;;;;;;;5.07;4.40;;;7.60;99.90;;;;;;460536;254;28066;-81
2021/10/28 18:43:44;;;;;;;5.13;4.37;;;7.60;99.90;;;;;;460566;258;27615;-82
2021/10/28 18:45:45;;;;;;;6.00;5.07;;;7.60;99.90;;;;;;460595;258;28605;-79
2021/10/28 18:47:46;;;;;;;4.55;4.15;;;7.60;99.90;;;;;;460551;254;29516;-81